Cherry, Illinois
Current Conditions -  °F | °C
As of 5:55 AM on Sunday 21 Dec 2014 (Local Time) from KVYS Reporting Station
Overcast Overcast  
Wind Chill: 26°   Ceiling: 2900
Heat Index: 34°   Visibility: 7mi
Dew Point: 31°   Wind: 10mph
Humidity: 88%   Direction: 170°S
Pressure: 30.19"   Gusts: NA
Location:  41.43°N, 89.21°W
Report Text: KVYS 211155Z AUTO 17009KT 7SM BKN029 OVC040 01/00 A3019 RMK AO2 T00131005 10013 20006
Loading
Personal Weather Stations






























Interactive Weather Map New forecast layout! Learn more

10-Day Weather Forecast

Advertisements
Track Severe Weather on mobile